Check time and date!

LGTT 040130Z AUTO 05004KT //// // ////// 06/// Q1014 RE//
TAF LGTT 040100Z 0403/0412 VRB03KT 9999 FEW025 BECMG 0410/0412 18008KT
--------------------------------------
LGMG 040100Z 0403/0412 VRB03KT 9999 FEW025 BECMG 0410/0412 15008KT
TAF LGMG 040100Z 0403/0412 VRB03KT 9999 FEW025 BECMG 0410/0412 15008KT
--------------------------------------
LGTG 040050Z 00000KT 9999 FEW025 06/05 Q1014
--------------------------------------
LGEL 040120Z AUTO VRB02KT //// // ////// 09/07 Q1014 RE//
--------------------------------------
LGAV 040120Z 25002KT 9999 FEW020 08/05 Q1014 RMK NOSIG
--------------------------------------
LGAT 040100Z AUTO VRB03KT //// // ////// 12/06 Q1014 RE//
--------------------------------------
METAR LGAD 040120Z 13004KT 9999 FEW020 09/09 Q1014
METAR LGAL 040050Z 00000KT 9999 FEW020 06/04 Q1014
METAR LGAV 040120Z 25002KT 9999 FEW020 08/05 Q1014 NOSIG
METAR LGBL 040050Z 25005KT 9999 FEW030 06/05 Q1013
METAR LGEL 040120Z AUTO VRB02KT //// // ////// 09/07 Q1014 RE//
METAR LGHI 040050Z VRB02KT CAVOK 08/06 Q1014
METAR LGIO 040120Z AUTO 00000KT //// // ////// 05/05 Q1014 RE//
METAR LGIR 040120Z 17006KT 9999 FEW025 10/09 Q1015 NOSIG
METAR LGKL 040120Z VRB03KT 9999 FEW025 07/06 Q1015
METAR LGKO 040120Z VRB02KT 9999 SCT025 12/09 Q1014
METAR LGKP 040130Z AUTO 29007KT //// // ////// 14/11 Q1014 RE//
METAR LGKR 040050Z 12008KT 9999 FEW018 14/11 Q1012 NOSIG
METAR LGKZ 040120Z AUTO VRB03KT //// // ////// 06/05 Q1013 RE//
METAR LGLM 040050Z 00000KT CAVOK 08/05 Q1014
METAR LGLR 040050Z 00000KT 3000 BR FEW004 06/06 Q1013 YLO
METAR LGPA 040120Z AUTO 09006KT //// // ////// 10/09 Q1014 RE//
METAR LGPZ 040050Z 09006KT 9999 FEW030 10/10 Q1014
METAR LGRP 040120Z VRB03KT 9999 FEW018 SCT020 14/12 Q1013 NOSIG
METAR LGRX 040050Z 00000KT 9999 FEW030 08/08 Q1014
METAR LGSA 040120Z 24006KT 9999 FEW020 12/11 Q1014
METAR LGSO 040120Z AUTO VRB02KT //// // ////// 13/10 Q1014 RE//
METAR LGTG 040050Z 00000KT 9999 FEW025 06/05 Q1014 BLU
METAR LGTS 040120Z 11004KT 9999 SCT030 11/10 Q1014 NOSIG

--------------------------------------
TAF LGAD 032300Z 0400/0409 VRB03KT 9999 FEW020
TAF LGAL 032300Z 0400/0409 VRB03KT 9999 SCT025
TAF LGAV 032300Z 0400/0424 VRB03KT 9999 FEW020 BECMG 0409/0411 16010KT BECMG 0421/0423 22010KT SCT025 BKN070 PROB40 TEMPO 0421/0424 5000 RA FEW018TCU SCT025 BKN070 PROB40 TEMPO 0422/0424 4000 TSRA FEW018CB BKN020 BKN070
TAF LGBL 032300Z 0400/0409 VRB03KT 9999 FEW020
TAF LGEL 032300Z 0400/0424 VRB03KT 9999 FEW020 BECMG 0409/0411 16010KT BECMG 0420/0422 24010KT BKN025 BKN070 PROB40 TEMPO 0420/0424 5000 RA FEW018TCU BKN025 BKN070 PROB40 TEMPO 0421/0424 4000 TSRA FEW018CB BKN020 BKN070
TAF LGHI 032300Z 0400/0409 VRB03KT 9999 FEW025
TAF LGIO 032300Z 0400/0409 VRB03KT 9999 FEW010 SCT025 PROB40 0402/0409 3000 BR SCT008 PROB30 TEMPO 0403/0408 0200 FG OVC001
TAF LGIR 032300Z 0400/0424 18008KT 9999 SCT025 BECMG 0410/0412 07010KT BECMG 0413/0415 18012KT BECMG 0417/0419 18020G33KT
TAF LGKC 032300Z 0400/0409 26010KT 9999 FEW018 BECMG 0407/0409 20010KT
TAF LGKF 032300Z 0400/0409 VRB03KT 9999 FEW016 BECMG 0402/0404 13010KT BECMG 0407/0409 13012G22KT
TAF LGKL 032300Z 0400/0409 35006KT 9999 SCT020
TAF LGKO 032300Z 0400/0424 VRB03KT 9999 SCT025 BECMG 0414/0416 16012KT BECMG 0420/0422 16020G30KT
TAF LGKP 032300Z 0400/0409 30008KT 9999 SCT020
TAF LGKR 032300Z 0400/0424 13012KT 9999 SCT025 SCT080 BECMG 0405/0407 14016G26KT SCT025 BKN080 PROB40 TEMPO 0412/0418 5000 RA FEW018TCU BKN025 BKN080 PROB40 TEMPO 0413/0417 3000 TSRA FEW012 FEW016CB BKN020 OVC070 BECMG 0415/0417 VRB05KT
TAF LGKV 032300Z 0400/0424 VRB03KT 9999 FEW025 PROB40 0400/0408 3000 BR SCT005 SCT020 PROB30 0402/0408 0500 FG BKN003 BECMG 0414/0416 FEW010 SCT025 BKN080 PROB40 TEMPO 0416/0424 5000 RA PROB30 0421/0424 3000 TSRA SCT008 FEW018CB BKN020 OVC070
TAF LGLM 032300Z 0400/0409 VRB03KT 9999 FEW015 PROB30 TEMPO 0403/0407 5000 BR FEW006
TAF LGLR 032300Z 0400/0409 VRB03KT 9999 FEW020 PROB40 TEMPO 0400/0409 4000 BR SCT010 PROB30 TEMPO 0400/0406 0600 FG BKN006 SCT020
TAF LGMK 032300Z 0400/0409 VRB03KT 9999 FEW020 BECMG 0405/0407 18010KT
TAF LGMT 032300Z 0400/0409 VRB03KT 9999 SCT025
TAF LGPZ 032300Z 0400/0424 11010KT 9999 SCT025 BECMG 0408/0410 15015G25KT SCT025 BKN080 PROB40 TEMPO 0414/0421 5000 RA FEW018TCU BKN025 BKN080 PROB40 TEMPO 0415/0420 3000 TSRA FEW012 FEW016CB BKN020 OVC070 BECMG 0416/0418 VRB05KT
TAF LGRP 032300Z 0400/0424 22007KT 9999 FEW018 SCT020 BECMG 0417/0419 15010KT PROB30 TEMPO 0410/0414 FEW018TCU SCT020
TAF LGRX 032300Z 0400/0409 VRB03KT 9999 FEW020
TAF LGSA 032300Z 0400/0424 26007KT 9999 FEW020 BECMG 0409/0411 12010KT TEMPO 0418/0422 15015G25KT PROB30 TEMPO 0422/0424 5000 RA FEW018TCU SCT020 BKN080
TAF LGSK 032300Z 0400/0409 VRB03KT 9999 FEW018
TAF LGSM 032300Z 0400/0409 VRB03KT 9999 FEW018
TAF LGSR 032300Z 0400/0424 24008KT 9999 SCT020 BECMG 0412/0414 15010KT BECMG 0417/0419 16015G25KT
TAF LGST 032300Z 0400/0409 29010KT 9999 SCT025 BECMG 0402/0404 VRB03KT
TAF LGSY 032300Z 0400/0409 15006KT 9999 FEW020
TAF LGTG 032300Z 0400/0409 VRB03KT 9999 FEW020
TAF LGTL 032300Z 0400/0409 VRB03KT 9999 FEW008 SCT020
TAF LGTS 032300Z 0400/0424 VRB03KT 9999 FEW015 PROB40 0400/0409 4000 BR SCT008 PROB40 0402/0408 0500 FG BKN003 BECMG 0408/0410 13013KT FEW010 SCT025 TEMPO 0412/0424 5000 RA PROB40 TEMPO 0418/0424 3000 TSRA SCT008 FEW018CB BKN020
TAF LGZA 032300Z 0400/0409 VRB03KT 9999 FEW018 BECMG 0402/0404 15010KT BECMG 0407/0409 15014G24KT